createdAt,value
2019-01-13T00:02:45.311Z,83.30
2019-01-13T00:06:48.744Z,83.30
2019-01-13T00:10:52.158Z,83.30
2019-01-13T00:14:55.583Z,83.90
2019-01-13T00:18:59.009Z,83.30
2019-01-13T00:23:02.435Z,83.20
2019-01-13T00:27:05.847Z,83.40
2019-01-13T00:31:09.271Z,83.40
2019-01-13T00:35:13.131Z,83.50
2019-01-13T00:39:16.571Z,83.70
2019-01-13T00:43:19.988Z,83.80
2019-01-13T00:47:23.416Z,83.90
2019-01-13T00:51:26.846Z,84.10
2019-01-13T00:55:49.616Z,84.10
2019-01-13T00:59:53.047Z,83.80
2019-01-13T01:03:56.552Z,84.40
2019-01-13T01:08:00.027Z,84.40
2019-01-13T01:12:03.511Z,84.40
2019-01-13T01:16:07.085Z,84.60
2019-01-13T01:20:13.147Z,84.50
2019-01-13T01:24:16.567Z,84.50
2019-01-13T01:28:19.975Z,84.30
2019-01-13T01:32:23.400Z,84.20
2019-01-13T01:36:26.831Z,84.40
2019-01-13T01:40:30.337Z,84.30
2019-01-13T01:44:33.755Z,84.50
2019-01-13T01:48:37.173Z,84.50
2019-01-13T01:52:40.672Z,84.50
2019-01-13T01:56:44.158Z,84.30
2019-01-13T02:00:47.596Z,84.20
2019-01-13T02:04:51.020Z,84.20
2019-01-13T02:08:54.428Z,84.30
2019-01-13T02:12:57.861Z,84.60
2019-01-13T02:17:01.328Z,84.50
2019-01-13T02:21:04.831Z,84.70
2019-01-13T02:25:11.177Z,84.30
2019-01-13T02:29:14.600Z,84.60
2019-01-13T02:33:18.023Z,84.60
2019-01-13T02:37:21.455Z,84.50
2019-01-13T02:41:24.884Z,84.30
2019-01-13T02:45:28.286Z,84.10
2019-01-13T02:49:31.731Z,83.90
2019-01-13T02:53:35.152Z,84.00
2019-01-13T02:57:38.644Z,83.90
2019-01-13T03:01:42.077Z,83.60
2019-01-13T03:05:45.483Z,83.50
2019-01-13T03:09:48.917Z,83.40
2019-01-13T03:13:52.340Z,83.80
2019-01-13T03:17:55.894Z,82.90
2019-01-13T03:21:59.319Z,82.30
2019-01-13T03:26:02.738Z,82.80
2019-01-13T03:30:09.248Z,82.60
2019-01-13T03:34:14.301Z,82.60
2019-01-13T03:38:17.727Z,82.70
2019-01-13T03:42:21.135Z,82.70
2019-01-13T03:46:24.574Z,82.50
2019-01-13T03:50:27.993Z,82.40
2019-01-13T03:54:31.411Z,82.20
2019-01-13T03:58:34.835Z,82.10
2019-01-13T04:02:38.248Z,82.10
2019-01-13T04:06:41.675Z,82.10
2019-01-13T04:10:45.170Z,82.00
2019-01-13T04:14:48.605Z,81.70
2019-01-13T04:18:52.616Z,81.50
2019-01-13T04:22:56.147Z,81.20
2019-01-13T04:26:59.577Z,81.30
2019-01-13T04:31:03.021Z,81.20
2019-01-13T04:35:08.052Z,81.00
2019-01-13T04:39:11.486Z,80.80
2019-01-13T04:43:14.904Z,80.40
2019-01-13T04:47:18.328Z,80.70
2019-01-13T04:51:21.760Z,80.70
2019-01-13T04:55:25.187Z,80.50
2019-01-13T04:59:28.616Z,80.50
2019-01-13T05:03:32.044Z,80.40
2019-01-13T05:07:35.467Z,80.40
2019-01-13T05:11:38.889Z,80.40
2019-01-13T05:15:42.327Z,80.30
2019-01-13T05:19:45.748Z,80.20
2019-01-13T05:23:49.172Z,80.30
2019-01-13T05:27:52.591Z,80.40
2019-01-13T05:31:56.012Z,80.40
2019-01-13T05:35:59.471Z,80.50
2019-01-13T05:40:02.879Z,80.50
2019-01-13T05:44:06.304Z,80.70
2019-01-13T05:48:09.726Z,80.60
2019-01-13T05:52:13.144Z,80.70
2019-01-13T05:56:16.550Z,80.50
2019-01-13T06:00:22.900Z,80.60
2019-01-13T06:04:26.318Z,80.50
2019-01-13T06:08:29.760Z,80.50
2019-01-13T06:12:33.175Z,80.70
2019-01-13T06:16:36.584Z,80.00
2019-01-13T06:20:40.015Z,80.80
2019-01-13T06:24:43.443Z,80.60
2019-01-13T06:28:46.878Z,80.20
2019-01-13T06:32:50.570Z,80.80
2019-01-13T06:36:53.984Z,80.80
2019-01-13T06:40:57.427Z,80.90
2019-01-13T06:45:00.907Z,80.80
2019-01-13T06:49:04.669Z,81.00
2019-01-13T06:53:08.079Z,81.00
2019-01-13T06:57:11.519Z,81.00
2019-01-13T07:01:14.939Z,81.20
2019-01-13T07:05:18.359Z,81.30
2019-01-13T07:09:21.786Z,81.20
2019-01-13T07:13:25.203Z,81.30
2019-01-13T07:17:28.636Z,81.40
2019-01-13T07:21:32.061Z,81.30
2019-01-13T07:25:35.555Z,81.50
2019-01-13T07:29:38.967Z,81.60
2019-01-13T07:33:42.386Z,81.50
2019-01-13T07:37:45.959Z,81.80
2019-01-13T07:41:49.382Z,82.00
2019-01-13T07:45:52.807Z,82.20
2019-01-13T07:49:56.232Z,82.20
2019-01-13T07:53:59.650Z,82.10
2019-01-13T07:58:03.101Z,82.00
2019-01-13T08:02:06.591Z,82.00
2019-01-13T08:06:10.023Z,81.70
2019-01-13T08:10:15.368Z,81.80
2019-01-13T08:14:18.787Z,81.80
2019-01-13T08:18:22.216Z,81.80
2019-01-13T08:22:25.648Z,82.00
2019-01-13T08:26:29.089Z,82.30
2019-01-13T08:30:32.499Z,82.40
2019-01-13T08:34:36.007Z,82.30
2019-01-13T08:38:39.427Z,82.20
2019-01-13T08:42:42.930Z,82.40
2019-01-13T08:46:46.351Z,82.50
2019-01-13T08:50:49.771Z,82.70
2019-01-13T08:54:53.194Z,82.70
2019-01-13T08:58:56.610Z,83.50
2019-01-13T09:03:00.040Z,82.70
2019-01-13T09:07:03.518Z,82.90
2019-01-13T09:11:06.948Z,83.00
2019-01-13T09:15:21.695Z,83.00
2019-01-13T09:19:25.127Z,83.00
2019-01-13T09:23:28.550Z,83.40
2019-01-13T09:27:34.199Z,84.20
2019-01-13T09:31:37.628Z,83.20
2019-01-13T09:35:41.056Z,83.40
2019-01-13T09:39:44.476Z,83.20
2019-01-13T09:43:47.909Z,83.50
2019-01-13T09:47:51.432Z,82.70
2019-01-13T09:51:54.870Z,83.70
2019-01-13T09:55:58.288Z,83.70
2019-01-13T10:00:01.741Z,83.70
2019-01-13T10:04:05.247Z,83.30
2019-01-13T10:08:08.838Z,83.30
2019-01-13T10:12:12.254Z,83.20
2019-01-13T10:16:15.676Z,83.30
2019-01-13T10:20:19.112Z,83.40
2019-01-13T10:24:22.596Z,83.30
2019-01-13T10:28:26.019Z,83.40
2019-01-13T10:32:29.447Z,83.70
2019-01-13T10:36:32.872Z,83.60
2019-01-13T10:40:36.299Z,83.60
2019-01-13T10:44:39.723Z,83.70
2019-01-13T10:48:43.147Z,83.80
2019-01-13T10:52:46.643Z,84.00
2019-01-13T10:56:50.128Z,83.80
2019-01-13T11:00:53.542Z,83.80
2019-01-13T11:04:56.967Z,83.70
2019-01-13T11:09:00.394Z,83.30
2019-01-13T11:13:03.927Z,83.50
2019-01-13T11:17:07.436Z,83.60
2019-01-13T11:21:10.853Z,83.50
2019-01-13T11:25:14.951Z,83.40
2019-01-13T11:29:18.367Z,83.20
2019-01-13T11:33:21.800Z,83.60
2019-01-13T11:37:25.217Z,83.50
2019-01-13T11:41:28.700Z,83.60
2019-01-13T11:45:32.575Z,83.90
2019-01-13T11:49:35.987Z,83.10
2019-01-13T11:53:39.563Z,83.80
2019-01-13T11:57:43.414Z,83.70
2019-01-13T12:01:46.852Z,84.00
2019-01-13T12:05:50.378Z,83.80
2019-01-13T12:09:53.839Z,84.10
2019-01-13T12:13:57.251Z,84.10
2019-01-13T12:18:00.725Z,84.30
2019-01-13T12:22:04.201Z,84.40
2019-01-13T12:26:07.663Z,84.10
2019-01-13T12:30:17.179Z,84.50
2019-01-13T12:34:20.629Z,84.40
2019-01-13T12:38:24.060Z,85.00
2019-01-13T12:42:27.499Z,84.60
2019-01-13T12:46:31.039Z,84.70
2019-01-13T12:50:34.443Z,85.00
2019-01-13T12:54:37.866Z,85.10
2019-01-13T12:58:41.296Z,85.20
2019-01-13T13:02:44.893Z,85.50
2019-01-13T13:06:48.320Z,85.70
2019-01-13T13:10:51.722Z,86.00
2019-01-13T13:14:55.152Z,85.80
2019-01-13T13:18:58.580Z,86.70
2019-01-13T13:23:02.287Z,86.70
2019-01-13T13:27:05.779Z,87.00
2019-01-13T13:31:09.188Z,87.10
2019-01-13T13:35:12.881Z,87.00
2019-01-13T13:39:16.315Z,87.30
2019-01-13T13:43:19.727Z,87.30
2019-01-13T13:47:23.167Z,87.60
2019-01-13T13:51:26.593Z,87.80
2019-01-13T13:55:30.011Z,87.80
2019-01-13T13:59:33.445Z,88.00
2019-01-13T14:03:36.955Z,88.10
2019-01-13T14:07:40.374Z,88.00
2019-01-13T14:11:43.816Z,87.80
2019-01-13T14:15:47.223Z,87.90
2019-01-13T14:19:50.653Z,87.90
2019-01-13T14:23:54.086Z,88.00
2019-01-13T14:27:57.508Z,88.10
2019-01-13T14:32:01.019Z,88.10
2019-01-13T14:36:04.444Z,88.50
2019-01-13T14:40:14.145Z,88.80
2019-01-13T14:44:17.654Z,89.10
2019-01-13T14:48:21.067Z,89.00
2019-01-13T14:52:24.490Z,89.40
2019-01-13T14:56:27.919Z,89.70
2019-01-13T15:00:31.889Z,90.00
2019-01-13T15:04:35.488Z,90.00
2019-01-13T15:08:38.898Z,89.80
2019-01-13T15:12:42.472Z,89.90
2019-01-13T15:16:45.896Z,89.70
2019-01-13T15:20:49.356Z,89.70
2019-01-13T15:24:52.763Z,89.40
2019-01-13T15:28:56.210Z,89.50
2019-01-13T15:33:00.090Z,88.70
2019-01-13T15:37:03.516Z,89.20
2019-01-13T15:41:06.946Z,89.30
2019-01-13T15:45:12.699Z,89.30
2019-01-13T15:49:16.121Z,89.00
2019-01-13T15:53:19.542Z,89.00
2019-01-13T15:57:22.967Z,89.30
2019-01-13T16:01:26.400Z,89.40
2019-01-13T16:05:29.813Z,89.30
2019-01-13T16:09:34.711Z,89.40
2019-01-13T16:13:38.353Z,89.80
2019-01-13T16:17:41.800Z,90.10
2019-01-13T16:21:45.263Z,90.30
2019-01-13T16:25:48.675Z,90.30
2019-01-13T16:29:52.776Z,90.20
2019-01-13T16:33:56.199Z,90.10
2019-01-13T16:37:59.633Z,89.40
2019-01-13T16:42:03.106Z,89.30
2019-01-13T16:46:06.538Z,89.10
2019-01-13T16:50:18.703Z,89.10
2019-01-13T16:54:22.130Z,89.40
2019-01-13T16:58:25.568Z,89.20
2019-01-13T17:02:33.057Z,89.80
2019-01-13T17:06:34.255Z,90.10
2019-01-13T17:10:37.686Z,90.00
2019-01-13T17:14:41.124Z,90.10
2019-01-13T17:18:44.564Z,90.20
2019-01-13T17:22:48.532Z,90.30
2019-01-13T17:26:51.952Z,90.30
2019-01-13T17:30:55.383Z,90.40
2019-01-13T17:34:58.802Z,90.50
2019-01-13T17:39:02.276Z,90.50
2019-01-13T17:43:05.765Z,90.50
2019-01-13T17:47:09.200Z,90.50
2019-01-13T17:51:12.697Z,90.50
2019-01-13T17:55:18.722Z,90.50
2019-01-13T17:59:22.204Z,90.40
2019-01-13T18:03:31.457Z,90.30
2019-01-13T18:07:34.883Z,90.40
2019-01-13T18:11:38.317Z,90.30
2019-01-13T18:15:41.748Z,90.50
2019-01-13T18:19:45.163Z,90.50
2019-01-13T18:23:48.582Z,90.50
2019-01-13T18:27:52.030Z,90.40
2019-01-13T18:31:55.452Z,90.40
2019-01-13T18:35:58.876Z,90.40
2019-01-13T18:40:02.365Z,90.80
2019-01-13T18:44:05.795Z,90.40
2019-01-13T18:48:09.222Z,90.20
2019-01-13T18:52:12.653Z,90.00
2019-01-13T18:56:16.911Z,89.90
2019-01-13T19:00:24.471Z,89.80
2019-01-13T19:04:27.951Z,89.50
2019-01-13T19:08:31.380Z,89.50
2019-01-13T19:12:34.811Z,89.20
2019-01-13T19:16:41.082Z,89.10
2019-01-13T19:20:44.689Z,89.30
2019-01-13T19:24:48.264Z,90.10
2019-01-13T19:28:51.687Z,90.00
2019-01-13T19:32:55.116Z,89.40
2019-01-13T19:36:58.640Z,89.00
2019-01-13T19:41:02.125Z,88.20
2019-01-13T19:45:08.760Z,86.70
2019-01-13T19:49:12.192Z,86.50
2019-01-13T19:53:15.629Z,86.30
2019-01-13T19:57:19.059Z,86.10
2019-01-13T20:01:22.471Z,85.80
2019-01-13T20:05:25.986Z,85.30
2019-01-13T20:09:29.484Z,84.50
2019-01-13T20:13:32.917Z,83.40
2019-01-13T20:17:36.339Z,83.10
2019-01-13T20:21:39.774Z,82.90
2019-01-13T20:25:43.202Z,82.80
2019-01-13T20:29:46.618Z,82.50
2019-01-13T20:33:50.052Z,82.30
2019-01-13T20:37:53.543Z,82.80
2019-01-13T20:41:56.988Z,82.10
2019-01-13T20:46:00.408Z,82.60
2019-01-13T20:50:06.875Z,82.50
2019-01-13T20:54:10.294Z,82.30
2019-01-13T20:58:13.720Z,81.70
2019-01-13T21:02:17.141Z,80.70
2019-01-13T21:06:20.564Z,79.30
2019-01-13T21:10:24.114Z,78.60
2019-01-13T21:14:27.542Z,78.40
2019-01-13T21:18:30.964Z,77.70
2019-01-13T21:22:34.388Z,77.20
2019-01-13T21:26:37.819Z,76.40
2019-01-13T21:30:41.214Z,76.30
2019-01-13T21:34:44.639Z,75.40
2019-01-13T21:38:48.072Z,74.60
2019-01-13T21:42:51.504Z,77.20
2019-01-13T21:46:54.923Z,82.90
2019-01-13T21:50:58.343Z,86.50
2019-01-13T21:55:01.769Z,87.80
2019-01-13T21:59:05.204Z,89.10
2019-01-13T22:03:08.646Z,89.30
2019-01-13T22:07:12.077Z,89.10
2019-01-13T22:11:15.488Z,87.90
2019-01-13T22:15:20.562Z,86.30
2019-01-13T22:19:25.426Z,85.10
2019-01-13T22:23:28.849Z,84.60
2019-01-13T22:27:32.284Z,83.50
2019-01-13T22:31:35.700Z,83.20
2019-01-13T22:35:39.122Z,82.90
2019-01-13T22:39:42.547Z,81.60
2019-01-13T22:43:45.979Z,81.10
2019-01-13T22:47:49.427Z,80.40
2019-01-13T22:51:52.903Z,80.30
2019-01-13T22:55:56.323Z,79.50
2019-01-13T22:59:59.774Z,78.60
2019-01-13T23:04:03.203Z,78.30
2019-01-13T23:08:06.615Z,78.30
2019-01-13T23:12:10.039Z,77.60
2019-01-13T23:16:13.465Z,76.10
2019-01-13T23:20:17.027Z,75.30
2019-01-13T23:24:20.464Z,75.20
2019-01-13T23:28:23.956Z,74.70
2019-01-13T23:32:27.408Z,74.70
2019-01-13T23:36:30.837Z,74.80
2019-01-13T23:40:34.250Z,74.50
2019-01-13T23:44:37.675Z,74.40
2019-01-13T23:48:41.095Z,74.60
2019-01-13T23:52:44.517Z,74.90
2019-01-13T23:56:47.941Z,75.00
